createdAt,value
2019-01-18T00:00:46.063Z,4
2019-01-18T00:10:52.161Z,4
2019-01-18T00:20:57.121Z,3
2019-01-18T00:31:04.205Z,4
2019-01-18T00:41:12.344Z,4
2019-01-18T00:51:16.298Z,3
2019-01-18T01:01:23.649Z,4
2019-01-18T01:21:38.274Z,3
2019-01-18T01:31:46.317Z,4
2019-01-18T01:41:54.232Z,2
2019-01-18T01:52:01.271Z,4
2019-01-18T02:02:08.764Z,2
2019-01-18T02:12:15.174Z,2
2019-01-18T02:22:22.635Z,2
2019-01-18T02:32:31.244Z,2
2019-01-18T02:42:39.085Z,2
2019-01-18T02:52:45.498Z,3
2019-01-18T03:02:54.517Z,2
2019-01-18T03:13:02.737Z,2
2019-01-18T03:23:09.184Z,3
2019-01-18T03:33:18.399Z,2
2019-01-18T03:43:24.635Z,2
2019-01-18T03:53:33.149Z,2
2019-01-18T04:03:41.041Z,3
2019-01-18T04:13:49.022Z,2
2019-01-18T04:23:56.628Z,2
2019-01-18T04:34:08.519Z,3
2019-01-18T04:44:14.342Z,3
2019-01-18T04:54:22.313Z,3
2019-01-18T05:04:29.375Z,5
2019-01-18T05:14:37.339Z,6
2019-01-18T05:24:50.240Z,6
2019-01-18T05:34:53.188Z,5
2019-01-18T05:44:59.846Z,4
2019-01-18T05:55:06.587Z,4
2019-01-18T06:05:14.833Z,5
2019-01-18T06:15:23.977Z,6
2019-01-18T06:25:30.276Z,6
2019-01-18T06:35:38.092Z,4
2019-01-18T06:45:44.018Z,8
2019-01-18T06:55:51.629Z,5
2019-01-18T07:06:00.139Z,5
2019-01-18T07:09:19.092Z,7
2019-01-18T07:10:31.070Z,4
2019-01-18T07:20:37.071Z,6
2019-01-18T07:30:43.865Z,5
2019-01-18T07:36:04.243Z,7
2019-01-18T07:46:11.668Z,7
2019-01-18T07:56:21.030Z,7
2019-01-18T08:06:27.963Z,7
2019-01-18T08:16:35.940Z,7
2019-01-18T08:26:41.513Z,5
2019-01-18T08:36:48.586Z,5
2019-01-18T08:46:56.840Z,6
2019-01-18T08:57:03.912Z,6
2019-01-18T09:07:13.754Z,6
2019-01-18T09:17:20.118Z,4
2019-01-18T09:27:28.370Z,5
2019-01-18T09:37:35.252Z,4
2019-01-18T09:47:42.661Z,6
2019-01-18T09:57:49.921Z,4
2019-01-18T10:07:57.837Z,6
2019-01-18T10:18:04.171Z,5
2019-01-18T10:28:13.876Z,4
2019-01-18T10:38:20.402Z,2
2019-01-18T10:45:40.949Z,5
2019-01-18T10:55:43.873Z,5
2019-01-18T11:05:50.812Z,3
2019-01-18T11:16:00.010Z,7
2019-01-18T11:26:08.609Z,4
2019-01-18T11:36:18.502Z,2
2019-01-18T11:40:11.977Z,4
2019-01-18T11:50:14.426Z,2
2019-01-18T12:00:23.521Z,6
2019-01-18T12:04:38.952Z,3
2019-01-18T12:07:58.955Z,4
2019-01-18T12:18:14.183Z,4
2019-01-18T12:28:19.495Z,10
2019-01-18T12:37:38.242Z,3
2019-01-18T12:47:45.266Z,3
2019-01-18T12:57:53.224Z,4
2019-01-18T13:04:12.885Z,4
2019-01-18T13:10:35.906Z,4
2019-01-18T13:11:49.146Z,3
2019-01-18T13:15:43.640Z,24
2019-01-18T13:19:58.559Z,9
2019-01-18T13:25:26.832Z,4
2019-01-18T13:26:39.499Z,5
2019-01-18T13:28:01.196Z,3
2019-01-18T13:28:54.569Z,5
2019-01-18T13:30:11.651Z,4
2019-01-18T13:33:20.963Z,4
2019-01-18T13:43:27.982Z,5
2019-01-18T13:53:50.862Z,4
2019-01-18T13:56:06.466Z,4
2019-01-18T13:58:19.342Z,5
2019-01-18T14:08:27.073Z,7
2019-01-18T14:13:49.809Z,8
2019-01-18T14:15:02.582Z,5
2019-01-18T14:16:36.715Z,23
2019-01-18T14:26:42.949Z,8
2019-01-18T14:27:54.058Z,6
2019-01-18T14:38:01.894Z,3
2019-01-18T14:43:17.494Z,3
2019-01-18T14:45:35.334Z,5
2019-01-18T14:55:40.351Z,8
2019-01-18T15:05:48.358Z,14
2019-01-18T15:09:03.595Z,11
2019-01-18T15:19:12.128Z,6
2019-01-18T15:29:24.296Z,8
2019-01-18T15:39:29.130Z,12
2019-01-18T15:49:36.882Z,8
2019-01-18T15:59:44.586Z,10
2019-01-18T16:09:56.215Z,10
2019-01-18T16:20:05.848Z,26
2019-01-18T16:24:25.936Z,32
2019-01-18T16:25:49.347Z,32
2019-01-18T16:35:58.296Z,29
2019-01-18T16:46:05.688Z,37
2019-01-18T16:56:26.541Z,37
2019-01-18T17:06:34.733Z,25
2019-01-18T17:16:46.182Z,10
2019-01-18T17:22:58.972Z,45
2019-01-18T17:33:05.590Z,17
2019-01-18T17:34:17.868Z,17
2019-01-18T17:44:24.362Z,16
2019-01-18T17:53:46.525Z,15
2019-01-18T17:54:59.032Z,15
2019-01-18T18:05:28.238Z,16
2019-01-18T18:15:36.950Z,15
2019-01-18T18:25:45.182Z,13
2019-01-18T18:35:52.341Z,12
2019-01-18T18:46:02.950Z,31
2019-01-18T18:55:21.751Z,22
2019-01-18T18:56:34.622Z,23
2019-01-18T19:06:43.114Z,26
2019-01-18T19:16:49.508Z,34
2019-01-18T19:26:57.504Z,56
2019-01-18T19:37:05.807Z,27
2019-01-18T19:47:12.650Z,17
2019-01-18T19:57:18.750Z,25
2019-01-18T20:07:27.099Z,30
2019-01-18T20:17:35.021Z,23
2019-01-18T20:27:43.109Z,8
2019-01-18T20:37:54.210Z,11
2019-01-18T20:48:02.927Z,12
2019-01-18T20:58:11.167Z,11
2019-01-18T21:08:19.723Z,14
2019-01-18T21:18:28.275Z,13
2019-01-18T21:28:36.874Z,13
2019-01-18T21:38:44.631Z,11
2019-01-18T21:48:50.803Z,11
2019-01-18T21:58:57.541Z,9
2019-01-18T22:05:14.416Z,8
2019-01-18T22:15:22.720Z,7
2019-01-18T22:25:28.739Z,11
2019-01-18T22:35:36.051Z,7
2019-01-18T22:45:42.091Z,13
2019-01-18T22:55:50.137Z,13
2019-01-18T23:05:57.133Z,8
2019-01-18T23:16:04.336Z,8
2019-01-18T23:26:12.117Z,6
2019-01-18T23:36:20.606Z,6
2019-01-18T23:46:28.187Z,5
2019-01-18T23:56:38.456Z,6
